الصفحة الرئيسية
METAR-TAF:

METAR-TAF

مطار :

Whyalla, أستراليا

دائرة عرض: 33-03-32S, خط طول: 137-30-52E, ارتفاع: 12 متر

مراقبة الطقس الحالي

تاريخ ووقت الإصدار 54 دقيقة قبل الساعة 16:00UTC
ريح 11 عقدة من الجنوب/الجنوب الشرقي
درجة الحرارة 16°درجة مئوية
الرطوبة 55%
ضغط 1019 hPa
الرؤية 10 كم أو أكثر
غيوم مفككة على ارتفاع 4600 قدم

METAR: YWHA 151600Z AUTO 16011KT 9999 // BKN046 16/07 Q1019

زمن: 03:24 (16:54 UTC)


TAF: مفقودة

أرصاد الطقس والتوقعات من أكثر من 4000 مطار (تقارير الطقس للمطار METAR والتنبؤ بالطقس بالمطارTAF).

المحطات المتاحة هي النقط الصفراء والحمراء على الخريطة.

حرك المؤشر فوق النقطة لمعرفة اسم المحطة.

ثم انقر لمعرفة أرصاد وتوقعات الطقس.

لتغيير الخارطة: اضغط على الأزرار الخضراء مع رمز الصليب الأسود للتكبير. على الزر الأخضر مع شرطة للتصغير، أو على الأسهم الخضراء للخرائط المجاورة.


METAR-TAF: